sensor_id;sensor_type;location;lat;lon;timestamp;pressure;altitude;pressure_sealevel;temperature;humidity
47716;BME280;33476;50.984;3.538;2022-12-11T00:00:38;101227.91;;;4.50;70.23
47716;BME280;33476;50.984;3.538;2022-12-11T00:03:03;101228.84;;;4.47;70.27
47716;BME280;33476;50.984;3.538;2022-12-11T00:05:29;101222.91;;;4.41;70.56
47716;BME280;33476;50.984;3.538;2022-12-11T00:07:54;101217.59;;;4.48;70.17
47716;BME280;33476;50.984;3.538;2022-12-11T00:10:19;101217.59;;;4.48;70.35
47716;BME280;33476;50.984;3.538;2022-12-11T00:12:45;101221.06;;;4.47;70.31
47716;BME280;33476;50.984;3.538;2022-12-11T00:15:10;101221.91;;;4.49;70.40
47716;BME280;33476;50.984;3.538;2022-12-11T00:17:35;101221.09;;;4.44;70.28
47716;BME280;33476;50.984;3.538;2022-12-11T00:20:01;101212.47;;;4.45;70.54
47716;BME280;33476;50.984;3.538;2022-12-11T00:22:28;101212.53;;;4.42;70.57
47716;BME280;33476;50.984;3.538;2022-12-11T00:24:54;101218.44;;;4.49;70.29
47716;BME280;33476;50.984;3.538;2022-12-11T00:27:19;101223.59;;;4.50;70.16
47716;BME280;33476;50.984;3.538;2022-12-11T00:29:44;101222.78;;;4.48;70.13
47716;BME280;33476;50.984;3.538;2022-12-11T00:32:10;101210.72;;;4.47;70.31
47716;BME280;33476;50.984;3.538;2022-12-11T00:34:35;101219.19;;;4.57;69.83
47716;BME280;33476;50.984;3.538;2022-12-11T00:37:00;101210.53;;;4.58;69.93
47716;BME280;33476;50.984;3.538;2022-12-11T00:39:26;101219.91;;;4.65;69.50
47716;BME280;33476;50.984;3.538;2022-12-11T00:41:51;101210.47;;;4.61;69.71
47716;BME280;33476;50.984;3.538;2022-12-11T00:44:16;101209.59;;;4.62;69.60
47716;BME280;33476;50.984;3.538;2022-12-11T00:46:41;101200.94;;;4.63;69.49
47716;BME280;33476;50.984;3.538;2022-12-11T00:49:07;101194.97;;;4.60;69.26
47716;BME280;33476;50.984;3.538;2022-12-11T00:51:32;101195.91;;;4.57;69.68
47716;BME280;33476;50.984;3.538;2022-12-11T00:53:57;101189.91;;;4.55;69.52
47716;BME280;33476;50.984;3.538;2022-12-11T00:56:23;101192.63;;;4.46;69.73
47716;BME280;33476;50.984;3.538;2022-12-11T00:58:49;101193.50;;;4.45;70.04
47716;BME280;33476;50.984;3.538;2022-12-11T01:01:18;101195.25;;;4.44;69.78
47716;BME280;33476;50.984;3.538;2022-12-11T01:03:45;101198.69;;;4.45;70.08
47716;BME280;33476;50.984;3.538;2022-12-11T01:06:19;101203.03;;;4.43;70.07
47716;BME280;33476;50.984;3.538;2022-12-11T01:08:46;101202.00;;;4.51;69.65
47716;BME280;33476;50.984;3.538;2022-12-11T01:11:14;101193.47;;;4.48;70.02
47716;BME280;33476;50.984;3.538;2022-12-11T01:13:40;101199.50;;;4.48;69.75
47716;BME280;33476;50.984;3.538;2022-12-11T01:16:12;101196.03;;;4.49;69.58
47716;BME280;33476;50.984;3.538;2022-12-11T01:18:37;101193.19;;;4.65;69.43
47716;BME280;33476;50.984;3.538;2022-12-11T01:21:07;101190.75;;;4.56;69.06
47716;BME280;33476;50.984;3.538;2022-12-11T01:23:33;101195.19;;;4.47;69.26
47716;BME280;33476;50.984;3.538;2022-12-11T01:26:07;101197.81;;;4.44;69.42
47716;BME280;33476;50.984;3.538;2022-12-11T01:28:33;101191.75;;;4.48;69.47
47716;BME280;33476;50.984;3.538;2022-12-11T01:30:59;101198.78;;;4.40;69.87
47716;BME280;33476;50.984;3.538;2022-12-11T01:33:24;101186.66;;;4.42;69.50
47716;BME280;33476;50.984;3.538;2022-12-11T01:35:50;101188.25;;;4.49;69.41
47716;BME280;33476;50.984;3.538;2022-12-11T01:38:15;101189.00;;;4.58;69.04
47716;BME280;33476;50.984;3.538;2022-12-11T01:40:46;101183.78;;;4.59;69.07
47716;BME280;33476;50.984;3.538;2022-12-11T01:43:11;101190.44;;;4.74;68.75
47716;BME280;33476;50.984;3.538;2022-12-11T01:45:41;101184.47;;;4.69;68.23
47716;BME280;33476;50.984;3.538;2022-12-11T01:48:15;101181.94;;;4.66;68.50
47716;BME280;33476;50.984;3.538;2022-12-11T01:50:54;101174.16;;;4.67;68.66
47716;BME280;33476;50.984;3.538;2022-12-11T01:53:30;101177.53;;;4.72;68.34
47716;BME280;33476;50.984;3.538;2022-12-11T01:55:57;101179.97;;;4.78;68.24
47716;BME280;33476;50.984;3.538;2022-12-11T01:58:26;101181.69;;;4.79;68.21
47716;BME280;33476;50.984;3.538;2022-12-11T02:00:53;101173.03;;;4.82;68.21
47716;BME280;33476;50.984;3.538;2022-12-11T02:03:19;101176.56;;;4.76;68.30
47716;BME280;33476;50.984;3.538;2022-12-11T02:05:45;101179.25;;;4.70;68.25
47716;BME280;33476;50.984;3.538;2022-12-11T02:08:10;101182.72;;;4.69;68.51
47716;BME280;33476;50.984;3.538;2022-12-11T02:11:06;101176.78;;;4.66;68.56
47716;BME280;33476;50.984;3.538;2022-12-11T02:13:54;101180.16;;;4.69;68.43
47716;BME280;33476;50.984;3.538;2022-12-11T02:18:54;101172.56;;;4.60;68.69
47716;BME280;33476;50.984;3.538;2022-12-11T02:21:42;101163.88;;;4.63;68.61
47716;BME280;33476;50.984;3.538;2022-12-11T02:27:16;101165.47;;;4.70;68.01
47716;BME280;33476;50.984;3.538;2022-12-11T02:29:50;101156.81;;;4.72;67.98
47716;BME280;33476;50.984;3.538;2022-12-11T02:32:46;101159.44;;;4.69;68.10
47716;BME280;33476;50.984;3.538;2022-12-11T02:35:18;101153.38;;;4.70;68.29
47716;BME280;33476;50.984;3.538;2022-12-11T02:37:47;101143.03;;;4.72;67.90
47716;BME280;33476;50.984;3.538;2022-12-11T02:40:18;101152.50;;;4.71;68.25
47716;BME280;33476;50.984;3.538;2022-12-11T02:42:47;101141.28;;;4.71;68.11
47716;BME280;33476;50.984;3.538;2022-12-11T02:45:14;101140.44;;;4.70;68.06
47716;BME280;33476;50.984;3.538;2022-12-11T02:47:42;101136.97;;;4.71;68.47
47716;BME280;33476;50.984;3.538;2022-12-11T02:50:13;101139.50;;;4.76;68.00
47716;BME280;33476;50.984;3.538;2022-12-11T02:52:41;101141.97;;;4.82;67.89
47716;BME280;33476;50.984;3.538;2022-12-11T02:55:09;101138.47;;;4.85;67.88
47716;BME280;33476;50.984;3.538;2022-12-11T03:00:04;101128.22;;;4.80;68.15
47716;BME280;33476;50.984;3.538;2022-12-11T03:02:30;101129.06;;;4.79;68.01
47716;BME280;33476;50.984;3.538;2022-12-11T03:04:55;101139.47;;;4.77;67.92
47716;BME280;33476;50.984;3.538;2022-12-11T03:07:24;101130.03;;;4.75;67.89
47716;BME280;33476;50.984;3.538;2022-12-11T03:09:50;101130.91;;;4.74;68.00
47716;BME280;33476;50.984;3.538;2022-12-11T03:12:19;101132.69;;;4.70;68.45
47716;BME280;33476;50.984;3.538;2022-12-11T03:14:46;101127.50;;;4.72;68.12
47716;BME280;33476;50.984;3.538;2022-12-11T03:19:54;101118.72;;;4.79;68.26
47716;BME280;33476;50.984;3.538;2022-12-11T03:22:31;101108.97;;;4.93;67.66
47716;BME280;33476;50.984;3.538;2022-12-11T03:25:05;101115.06;;;4.91;67.16
47716;BME280;33476;50.984;3.538;2022-12-11T03:27:43;101115.09;;;4.89;67.72
47716;BME280;33476;50.984;3.538;2022-12-11T03:30:16;101113.44;;;4.85;67.61
47716;BME280;33476;50.984;3.538;2022-12-11T03:32:52;101109.22;;;4.81;68.09
47716;BME280;33476;50.984;3.538;2022-12-11T03:35:24;101112.63;;;4.83;67.98
47716;BME280;33476;50.984;3.538;2022-12-11T03:37:52;101108.22;;;4.88;67.89
47716;BME280;33476;50.984;3.538;2022-12-11T03:40:20;101103.00;;;4.90;67.61
47716;BME280;33476;50.984;3.538;2022-12-11T03:42:50;101103.94;;;4.86;67.77
47716;BME280;33476;50.984;3.538;2022-12-11T03:45:18;101099.66;;;4.85;68.01
47716;BME280;33476;50.984;3.538;2022-12-11T03:47:45;101095.53;;;4.74;68.07
47716;BME280;33476;50.984;3.538;2022-12-11T03:50:12;101094.03;;;4.63;68.86
47716;BME280;33476;50.984;3.538;2022-12-11T03:52:40;101086.31;;;4.60;69.11
47716;BME280;33476;50.984;3.538;2022-12-11T03:55:07;101082.84;;;4.61;69.00
47716;BME280;33476;50.984;3.538;2022-12-11T03:57:36;101097.31;;;4.71;68.56
47716;BME280;33476;50.984;3.538;2022-12-11T04:00:13;101096.53;;;4.67;68.87
47716;BME280;33476;50.984;3.538;2022-12-11T04:02:40;101094.00;;;4.64;68.57
47716;BME280;33476;50.984;3.538;2022-12-11T04:05:06;101091.34;;;4.67;68.75
47716;BME280;33476;50.984;3.538;2022-12-11T04:07:32;101096.56;;;4.66;68.82
47716;BME280;33476;50.984;3.538;2022-12-11T04:09:57;101092.19;;;4.69;68.47
47716;BME280;33476;50.984;3.538;2022-12-11T04:12:23;101085.31;;;4.68;68.61
47716;BME280;33476;50.984;3.538;2022-12-11T04:14:48;101097.38;;;4.68;68.58
47716;BME280;33476;50.984;3.538;2022-12-11T04:17:26;101105.13;;;4.69;68.71
47716;BME280;33476;50.984;3.538;2022-12-11T04:20:10;101095.75;;;4.64;69.16
47716;BME280;33476;50.984;3.538;2022-12-11T04:22:54;101091.47;;;4.61;68.92
47716;BME280;33476;50.984;3.538;2022-12-11T04:25:38;101096.78;;;4.55;69.08
47716;BME280;33476;50.984;3.538;2022-12-11T04:28:04;101098.34;;;4.64;69.03
47716;BME280;33476;50.984;3.538;2022-12-11T04:30:29;101095.63;;;4.70;68.98
47716;BME280;33476;50.984;3.538;2022-12-11T04:32:54;101099.06;;;4.70;68.98
47716;BME280;33476;50.984;3.538;2022-12-11T04:35:20;101099.81;;;4.75;68.86
47716;BME280;33476;50.984;3.538;2022-12-11T04:37:46;101095.50;;;4.76;68.60
47716;BME280;33476;50.984;3.538;2022-12-11T04:40:13;101089.44;;;4.77;68.32
47716;BME280;33476;50.984;3.538;2022-12-11T04:42:39;101086.94;;;4.74;68.65
47716;BME280;33476;50.984;3.538;2022-12-11T04:45:05;101083.50;;;4.73;68.74
47716;BME280;33476;50.984;3.538;2022-12-11T04:47:34;101081.88;;;4.68;68.64
47716;BME280;33476;50.984;3.538;2022-12-11T04:49:59;101087.00;;;4.69;68.48
47716;BME280;33476;50.984;3.538;2022-12-11T04:52:25;101085.22;;;4.73;68.78
47716;BME280;33476;50.984;3.538;2022-12-11T04:54:50;101086.06;;;4.73;68.38
47716;BME280;33476;50.984;3.538;2022-12-11T04:57:15;101083.59;;;4.67;68.48
47716;BME280;33476;50.984;3.538;2022-12-11T04:59:41;101080.41;;;4.53;69.05
47716;BME280;33476;50.984;3.538;2022-12-11T05:02:06;101075.19;;;4.56;68.83
47716;BME280;33476;50.984;3.538;2022-12-11T05:04:33;101077.00;;;4.51;68.97
47716;BME280;33476;50.984;3.538;2022-12-11T05:06:59;101071.00;;;4.50;68.98
47716;BME280;33476;50.984;3.538;2022-12-11T05:09:24;101066.59;;;4.54;68.94
47716;BME280;33476;50.984;3.538;2022-12-11T05:11:51;101059.81;;;4.48;69.07
47716;BME280;33476;50.984;3.538;2022-12-11T05:14:17;101058.88;;;4.53;68.79
47716;BME280;33476;50.984;3.538;2022-12-11T05:16:42;101054.50;;;4.55;68.83
47716;BME280;33476;50.984;3.538;2022-12-11T05:19:08;101057.91;;;4.58;68.59
47716;BME280;33476;50.984;3.538;2022-12-11T05:21:33;101050.06;;;4.61;68.74
47716;BME280;33476;50.984;3.538;2022-12-11T05:23:59;101044.81;;;4.66;68.07
47716;BME280;33476;50.984;3.538;2022-12-11T05:26:24;101041.31;;;4.68;68.08
47716;BME280;33476;50.984;3.538;2022-12-11T05:28:51;101044.69;;;4.73;67.78
47716;BME280;33476;50.984;3.538;2022-12-11T05:31:20;101044.72;;;4.70;67.83
47716;BME280;33476;50.984;3.538;2022-12-11T05:33:46;101043.03;;;4.69;68.11
47716;BME280;33476;50.984;3.538;2022-12-11T05:36:16;101042.19;;;4.67;67.94
47716;BME280;33476;50.984;3.538;2022-12-11T05:38:42;101036.25;;;4.64;67.79
47716;BME280;33476;50.984;3.538;2022-12-11T05:41:07;101041.31;;;4.68;68.04
47716;BME280;33476;50.984;3.538;2022-12-11T05:43:34;101037.84;;;4.69;67.72
47716;BME280;33476;50.984;3.538;2022-12-11T05:46:12;101042.31;;;4.61;68.06
47716;BME280;33476;50.984;3.538;2022-12-11T05:48:38;101041.44;;;4.62;67.87
47716;BME280;33476;50.984;3.538;2022-12-11T05:51:05;101039.03;;;4.53;68.10
47716;BME280;33476;50.984;3.538;2022-12-11T05:53:31;101045.84;;;4.57;68.00
47716;BME280;33476;50.984;3.538;2022-12-11T05:56:01;101048.47;;;4.56;68.02
47716;BME280;33476;50.984;3.538;2022-12-11T05:58:27;101045.03;;;4.55;68.02
47716;BME280;33476;50.984;3.538;2022-12-11T06:00:52;101058.72;;;4.60;67.89
47716;BME280;33476;50.984;3.538;2022-12-11T06:03:17;101043.97;;;4.65;67.93
47716;BME280;33476;50.984;3.538;2022-12-11T06:05:43;101049.19;;;4.62;67.57
47716;BME280;33476;50.984;3.538;2022-12-11T06:08:08;101042.47;;;4.55;67.68
47716;BME280;33476;50.984;3.538;2022-12-11T06:10:34;101044.22;;;4.51;68.14
47716;BME280;33476;50.984;3.538;2022-12-11T06:12:59;101043.31;;;4.54;67.98
47716;BME280;33476;50.984;3.538;2022-12-11T06:15:25;101043.38;;;4.51;67.54
47716;BME280;33476;50.984;3.538;2022-12-11T06:17:50;101044.41;;;4.42;68.02
47716;BME280;33476;50.984;3.538;2022-12-11T06:20:15;101036.72;;;4.39;67.55
47716;BME280;33476;50.984;3.538;2022-12-11T06:22:41;101038.53;;;4.34;67.63
47716;BME280;33476;50.984;3.538;2022-12-11T06:25:06;101041.09;;;4.36;67.62
47716;BME280;33476;50.984;3.538;2022-12-11T06:27:32;101038.47;;;4.37;67.73
47716;BME280;33476;50.984;3.538;2022-12-11T06:29:57;101036.66;;;4.42;67.46
47716;BME280;33476;50.984;3.538;2022-12-11T06:32:23;101039.22;;;4.44;67.04
47716;BME280;33476;50.984;3.538;2022-12-11T06:34:48;101035.84;;;4.40;67.21
47716;BME280;33476;50.984;3.538;2022-12-11T06:37:13;101039.31;;;4.38;67.01
47716;BME280;33476;50.984;3.538;2022-12-11T06:39:38;101041.13;;;4.34;66.93
47716;BME280;33476;50.984;3.538;2022-12-11T06:42:04;101045.41;;;4.35;66.68
47716;BME280;33476;50.984;3.538;2022-12-11T06:44:29;101055.84;;;4.31;66.94
47716;BME280;33476;50.984;3.538;2022-12-11T06:46:55;101051.66;;;4.23;66.91
47716;BME280;33476;50.984;3.538;2022-12-11T06:49:20;101056.75;;;4.28;66.62
47716;BME280;33476;50.984;3.538;2022-12-11T06:51:46;101061.88;;;4.31;66.54
47716;BME280;33476;50.984;3.538;2022-12-11T06:54:11;101059.28;;;4.31;66.57
47716;BME280;33476;50.984;3.538;2022-12-11T06:56:36;101053.22;;;4.32;66.68
47716;BME280;33476;50.984;3.538;2022-12-11T06:59:02;101060.97;;;4.34;66.34
47716;BME280;33476;50.984;3.538;2022-12-11T07:01:27;101056.63;;;4.34;66.27
47716;BME280;33476;50.984;3.538;2022-12-11T07:03:57;101062.69;;;4.33;66.12
47716;BME280;33476;50.984;3.538;2022-12-11T07:06:24;101061.78;;;4.36;65.83
47716;BME280;33476;50.984;3.538;2022-12-11T07:08:49;101066.91;;;4.37;65.89
47716;BME280;33476;50.984;3.538;2022-12-11T07:11:16;101065.19;;;4.38;66.01
47716;BME280;33476;50.984;3.538;2022-12-11T07:13:42;101065.09;;;4.42;65.80
47716;BME280;33476;50.984;3.538;2022-12-11T07:16:09;101070.25;;;4.44;65.55
47716;BME280;33476;50.984;3.538;2022-12-11T07:18:36;101074.59;;;4.42;65.56
47716;BME280;33476;50.984;3.538;2022-12-11T07:21:02;101084.91;;;4.43;65.68
47716;BME280;33476;50.984;3.538;2022-12-11T07:23:28;101078.06;;;4.41;65.43
47716;BME280;33476;50.984;3.538;2022-12-11T07:25:54;101079.84;;;4.37;65.57
47716;BME280;33476;50.984;3.538;2022-12-11T07:28:20;101079.00;;;4.37;65.45
47716;BME280;33476;50.984;3.538;2022-12-11T07:30:45;101073.88;;;4.34;65.67
47716;BME280;33476;50.984;3.538;2022-12-11T07:33:10;101080.78;;;4.33;65.56
47716;BME280;33476;50.984;3.538;2022-12-11T07:35:36;101080.81;;;4.32;65.54
47716;BME280;33476;50.984;3.538;2022-12-11T07:38:02;101086.00;;;4.30;65.13
47716;BME280;33476;50.984;3.538;2022-12-11T07:40:27;101080.09;;;4.23;65.33
47716;BME280;33476;50.984;3.538;2022-12-11T07:42:52;101085.31;;;4.22;65.45
47716;BME280;33476;50.984;3.538;2022-12-11T07:45:18;101084.47;;;4.20;65.85
47716;BME280;33476;50.984;3.538;2022-12-11T07:47:43;101086.16;;;4.22;65.60
47716;BME280;33476;50.984;3.538;2022-12-11T07:50:08;101081.88;;;4.20;65.63
47716;BME280;33476;50.984;3.538;2022-12-11T07:52:34;101085.31;;;4.22;65.58
47716;BME280;33476;50.984;3.538;2022-12-11T07:54:59;101078.38;;;4.24;65.47
47716;BME280;33476;50.984;3.538;2022-12-11T07:57:24;101081.72;;;4.29;65.52
47716;BME280;33476;50.984;3.538;2022-12-11T07:59:50;101081.75;;;4.28;65.02
47716;BME280;33476;50.984;3.538;2022-12-11T08:02:15;101081.06;;;4.18;65.23
47716;BME280;33476;50.984;3.538;2022-12-11T08:04:41;101083.91;;;4.03;65.68
47716;BME280;33476;50.984;3.538;2022-12-11T08:07:06;101075.41;;;3.94;66.41
47716;BME280;33476;50.984;3.538;2022-12-11T08:09:31;101077.91;;;4.01;66.13
47716;BME280;33476;50.984;3.538;2022-12-11T08:11:56;101079.50;;;4.09;65.64
47716;BME280;33476;50.984;3.538;2022-12-11T08:14:22;101082.84;;;4.14;65.36
47716;BME280;33476;50.984;3.538;2022-12-11T08:16:47;101067.34;;;4.14;65.25
47716;BME280;33476;50.984;3.538;2022-12-11T08:19:14;101072.44;;;4.17;65.18
47716;BME280;33476;50.984;3.538;2022-12-11T08:21:39;101070.66;;;4.21;65.13
47716;BME280;33476;50.984;3.538;2022-12-11T08:24:05;101074.09;;;4.21;65.05
47716;BME280;33476;50.984;3.538;2022-12-11T08:26:31;101069.03;;;4.17;65.53
47716;BME280;33476;50.984;3.538;2022-12-11T08:28:57;101074.19;;;4.17;65.46
47716;BME280;33476;50.984;3.538;2022-12-11T08:31:23;101077.59;;;4.19;65.36
47716;BME280;33476;50.984;3.538;2022-12-11T08:33:49;101077.59;;;4.19;65.46
47716;BME280;33476;50.984;3.538;2022-12-11T08:36:18;101081.06;;;4.18;65.56
47716;BME280;33476;50.984;3.538;2022-12-11T08:38:44;101085.31;;;4.22;65.26
47716;BME280;33476;50.984;3.538;2022-12-11T08:41:16;101087.91;;;4.22;65.26
47716;BME280;33476;50.984;3.538;2022-12-11T08:43:42;101087.88;;;4.23;64.81
47716;BME280;33476;50.984;3.538;2022-12-11T08:46:09;101089.63;;;4.20;65.30
47716;BME280;33476;50.984;3.538;2022-12-11T08:48:36;101092.44;;;4.08;65.50
47716;BME280;33476;50.984;3.538;2022-12-11T08:51:04;101093.31;;;4.05;65.37
47716;BME280;33476;50.984;3.538;2022-12-11T08:53:31;101091.59;;;4.07;65.19
47716;BME280;33476;50.984;3.538;2022-12-11T08:56:05;101094.25;;;4.03;65.28
47716;BME280;33476;50.984;3.538;2022-12-11T08:58:31;101089.88;;;4.06;65.37
47716;BME280;33476;50.984;3.538;2022-12-11T09:00:56;101087.22;;;4.11;65.36
47716;BME280;33476;50.984;3.538;2022-12-11T09:03:22;101088.03;;;4.13;65.27
47716;BME280;33476;50.984;3.538;2022-12-11T09:05:48;101086.19;;;4.19;64.84
47716;BME280;33476;50.984;3.538;2022-12-11T09:08:13;101086.19;;;4.19;64.79
47716;BME280;33476;50.984;3.538;2022-12-11T09:10:39;101088.88;;;4.15;65.21
47716;BME280;33476;50.984;3.538;2022-12-11T09:13:04;101085.44;;;4.14;65.17
47716;BME280;33476;50.984;3.538;2022-12-11T09:15:29;101087.16;;;4.15;64.95
47716;BME280;33476;50.984;3.538;2022-12-11T09:17:55;101089.66;;;4.18;64.74
47716;BME280;33476;50.984;3.538;2022-12-11T09:20:20;101079.28;;;4.20;64.88
47716;BME280;33476;50.984;3.538;2022-12-11T09:22:45;101071.53;;;4.20;64.74
47716;BME280;33476;50.984;3.538;2022-12-11T09:25:11;101074.97;;;4.20;64.77
47716;BME280;33476;50.984;3.538;2022-12-11T09:27:36;101074.19;;;4.17;64.61
47716;BME280;33476;50.984;3.538;2022-12-11T09:30:01;101074.25;;;4.12;64.86
47716;BME280;33476;50.984;3.538;2022-12-11T09:32:27;101080.31;;;4.11;64.74
47716;BME280;33476;50.984;3.538;2022-12-11T09:34:52;101083.66;;;4.18;64.58
47716;BME280;33476;50.984;3.538;2022-12-11T09:37:17;101077.63;;;4.17;64.48
47716;BME280;33476;50.984;3.538;2022-12-11T09:39:43;101076.75;;;4.18;64.55
47716;BME280;33476;50.984;3.538;2022-12-11T09:44:45;101071.72;;;4.09;64.78
47716;BME280;33476;50.984;3.538;2022-12-11T09:47:33;101078.59;;;4.10;64.58
47716;BME280;33476;50.984;3.538;2022-12-11T09:55:17;101078.69;;;4.06;64.76
47716;BME280;33476;50.984;3.538;2022-12-11T09:57:48;101082.34;;;3.92;64.96
47716;BME280;33476;50.984;3.538;2022-12-11T10:03:28;101079.94;;;3.82;64.94
47716;BME280;33476;50.984;3.538;2022-12-11T10:06:06;101081.88;;;3.67;65.66
47716;BME280;33476;50.984;3.538;2022-12-11T10:14:12;101071.28;;;3.84;65.43
47716;BME280;33476;50.984;3.538;2022-12-11T10:16:44;101065.91;;;3.98;64.53
47716;BME280;33476;50.984;3.538;2022-12-11T10:19:18;101061.50;;;4.03;64.77
47716;BME280;33476;50.984;3.538;2022-12-11T10:21:45;101058.03;;;4.06;64.85
47716;BME280;33476;50.984;3.538;2022-12-11T10:24:24;101055.50;;;4.01;64.99
47716;BME280;33476;50.984;3.538;2022-12-11T10:26:55;101057.13;;;4.05;64.58
47716;BME280;33476;50.984;3.538;2022-12-11T10:29:22;101058.84;;;4.08;64.97
47716;BME280;33476;50.984;3.538;2022-12-11T10:31:56;101062.41;;;4.01;64.75
47716;BME280;33476;50.984;3.538;2022-12-11T10:34:32;101059.88;;;3.98;65.03
47716;BME280;33476;50.984;3.538;2022-12-11T10:36:58;101056.38;;;4.00;64.99
47716;BME280;33476;50.984;3.538;2022-12-11T10:39:24;101061.47;;;4.05;65.13
47716;BME280;33476;50.984;3.538;2022-12-11T10:41:51;101054.59;;;4.04;65.23
47716;BME280;33476;50.984;3.538;2022-12-11T10:44:18;101056.28;;;4.05;65.19
47716;BME280;33476;50.984;3.538;2022-12-11T10:46:59;101052.94;;;4.00;65.10
47716;BME280;33476;50.984;3.538;2022-12-11T10:49:28;101051.13;;;4.06;65.24
47716;BME280;33476;50.984;3.538;2022-12-11T10:51:55;101051.03;;;4.11;65.29
47716;BME280;33476;50.984;3.538;2022-12-11T10:54:39;101038.94;;;4.11;65.15
47716;BME280;33476;50.984;3.538;2022-12-11T10:57:07;101045.94;;;4.05;64.94
47716;BME280;33476;50.984;3.538;2022-12-11T10:59:45;101037.47;;;3.98;65.19
47716;BME280;33476;50.984;3.538;2022-12-11T11:02:23;101042.63;;;4.00;64.94
47716;BME280;33476;50.984;3.538;2022-12-11T11:04:50;101035.59;;;4.08;65.13
47716;BME280;33476;50.984;3.538;2022-12-11T11:09:44;101018.41;;;4.04;65.23
47716;BME280;33476;50.984;3.538;2022-12-11T11:12:22;101022.81;;;3.99;65.23
47716;BME280;33476;50.984;3.538;2022-12-11T11:14:59;101023.56;;;4.04;65.07
47716;BME280;33476;50.984;3.538;2022-12-11T11:17:24;101024.34;;;4.09;64.59
47716;BME280;33476;50.984;3.538;2022-12-11T11:19:50;101020.94;;;4.07;64.95
47716;BME280;33476;50.984;3.538;2022-12-11T11:22:18;101022.69;;;4.06;64.95
47716;BME280;33476;50.984;3.538;2022-12-11T11:24:52;101015.84;;;4.02;64.94
47716;BME280;33476;50.984;3.538;2022-12-11T11:27:49;101020.03;;;4.09;64.55
47716;BME280;33476;50.984;3.538;2022-12-11T11:32:44;101011.38;;;4.12;64.80
47716;BME280;33476;50.984;3.538;2022-12-11T11:37:45;101016.38;;;4.21;64.44
47716;BME280;33476;50.984;3.538;2022-12-11T11:40:29;101018.09;;;4.22;64.33
47716;BME280;33476;50.984;3.538;2022-12-11T11:45:57;101010.47;;;4.14;64.09
47716;BME280;33476;50.984;3.538;2022-12-11T11:48:37;101012.06;;;4.20;64.55
47716;BME280;33476;50.984;3.538;2022-12-11T11:53:47;101012.03;;;4.23;64.21
47716;BME280;33476;50.984;3.538;2022-12-11T11:56:24;101007.66;;;4.27;64.18
47716;BME280;33476;50.984;3.538;2022-12-11T11:58:53;100999.72;;;4.36;64.16
47716;BME280;33476;50.984;3.538;2022-12-11T12:01:20;101001.31;;;4.43;63.84
47716;BME280;33476;50.984;3.538;2022-12-11T12:03:47;100997.00;;;4.42;63.79
47716;BME280;33476;50.984;3.538;2022-12-11T12:26:05;100983.00;;;4.52;64.05
47716;BME280;33476;50.984;3.538;2022-12-11T12:36:23;100981.38;;;4.46;64.08
47716;BME280;33476;50.984;3.538;2022-12-11T12:38:54;100973.66;;;4.45;63.90
47716;BME280;33476;50.984;3.538;2022-12-11T12:44:21;100979.88;;;4.36;64.17
47716;BME280;33476;50.984;3.538;2022-12-11T12:47:08;100981.72;;;4.31;64.35
47716;BME280;33476;50.984;3.538;2022-12-11T12:49:42;100980.06;;;4.27;64.17
47716;BME280;33476;50.984;3.538;2022-12-11T12:52:26;100991.47;;;4.17;64.83
47716;BME280;33476;50.984;3.538;2022-12-11T12:54:55;100987.06;;;4.20;64.66
47716;BME280;33476;50.984;3.538;2022-12-11T12:57:49;100988.66;;;4.28;64.32
47716;BME280;33476;50.984;3.538;2022-12-11T13:00:38;100982.47;;;4.36;64.39
47716;BME280;33476;50.984;3.538;2022-12-11T13:03:18;100982.34;;;4.42;64.41
47716;BME280;33476;50.984;3.538;2022-12-11T13:06:05;100984.91;;;4.44;64.27
47716;BME280;33476;50.984;3.538;2022-12-11T13:08:41;100985.84;;;4.40;63.98
47716;BME280;33476;50.984;3.538;2022-12-11T13:11:12;100990.16;;;4.41;64.12
47716;BME280;33476;50.984;3.538;2022-12-11T13:13:40;100990.88;;;4.47;64.02
47716;BME280;33476;50.984;3.538;2022-12-11T13:18:43;100988.53;;;4.35;64.13
47716;BME280;33476;50.984;3.538;2022-12-11T13:21:34;100990.38;;;4.29;64.74
47716;BME280;33476;50.984;3.538;2022-12-11T13:26:38;100995.56;;;4.27;64.71
47716;BME280;33476;50.984;3.538;2022-12-11T13:29:04;100991.44;;;4.18;64.77
47716;BME280;33476;50.984;3.538;2022-12-11T13:31:37;100995.84;;;4.12;65.15
47716;BME280;33476;50.984;3.538;2022-12-11T13:34:20;100992.41;;;4.11;64.81
47716;BME280;33476;50.984;3.538;2022-12-11T13:36:51;100988.88;;;4.17;65.05
47716;BME280;33476;50.984;3.538;2022-12-11T13:39:24;100992.78;;;4.38;64.32
47716;BME280;33476;50.984;3.538;2022-12-11T13:41:57;100983.38;;;4.34;64.23
47716;BME280;33476;50.984;3.538;2022-12-11T13:44:27;100985.84;;;4.40;64.16
47716;BME280;33476;50.984;3.538;2022-12-11T13:46:55;100977.09;;;4.45;63.87
47716;BME280;33476;50.984;3.538;2022-12-11T13:49:25;100983.00;;;4.52;63.89
47716;BME280;33476;50.984;3.538;2022-12-11T13:51:56;100982.09;;;4.55;63.85
47716;BME280;33476;50.984;3.538;2022-12-11T13:54:23;100982.03;;;4.58;63.58
47716;BME280;33476;50.984;3.538;2022-12-11T13:56:57;100984.81;;;4.48;63.82
47716;BME280;33476;50.984;3.538;2022-12-11T13:59:46;100984.16;;;4.39;64.36
47716;BME280;33476;50.984;3.538;2022-12-11T14:05:11;100976.28;;;4.43;64.03
47716;BME280;33476;50.984;3.538;2022-12-11T14:07:52;100978.03;;;4.43;64.15
47716;BME280;33476;50.984;3.538;2022-12-11T14:10:23;100977.94;;;4.47;63.87
47716;BME280;33476;50.984;3.538;2022-12-11T14:12:52;100980.53;;;4.47;63.98
47716;BME280;33476;50.984;3.538;2022-12-11T14:15:21;100976.13;;;4.51;63.94
47716;BME280;33476;50.984;3.538;2022-12-11T14:17:47;100980.47;;;4.50;64.15
47716;BME280;33476;50.984;3.538;2022-12-11T14:20:19;100987.47;;;4.44;64.28
47716;BME280;33476;50.984;3.538;2022-12-11T14:22:45;100983.19;;;4.43;64.14
47716;BME280;33476;50.984;3.538;2022-12-11T14:25:22;100976.38;;;4.40;64.50
47716;BME280;33476;50.984;3.538;2022-12-11T14:27:51;100985.78;;;4.43;64.34